Grenora, North Dakota
Current Conditions -  °F | °C
As of 11:52 PM on Thursday 30 Oct 2014 (Local Time) from KISN Reporting Station
Overcast Overcast  
Wind Chill: 20°   Ceiling: 1500
Heat Index: 31°   Visibility: 10mi
Dew Point: 24°   Wind: 15mph
Humidity: 76%   Direction: 130°SE
Pressure: 30.5"   Gusts: NA
Location:  48.62°N, 103.94°W
Report Text: KISN 310452Z AUTO 13013KT 10SM OVC015 M01/M04 A3050 RMK AO2 SLP355 T10061044
Loading
Personal Weather Stations






























Interactive Weather Map New forecast layout! Learn more

10-Day Weather Forecast

Advertisements
Track Severe Weather on mobile